sensor_id;sensor_type;location;lat;lon;timestamp;temperature;humidity
33699;DHT22;20032;52.436;13.312;2024-01-30T00:00:39;4.20;99.90
33699;DHT22;20032;52.436;13.312;2024-01-30T00:03:05;4.20;99.90
33699;DHT22;20032;52.436;13.312;2024-01-30T00:05:30;4.20;99.90
33699;DHT22;20032;52.436;13.312;2024-01-30T00:07:55;4.00;99.90
33699;DHT22;20032;52.436;13.312;2024-01-30T00:10:21;4.10;99.90
33699;DHT22;20032;52.436;13.312;2024-01-30T00:12:47;4.10;99.90
33699;DHT22;20032;52.436;13.312;2024-01-30T00:15:12;4.10;99.90
33699;DHT22;20032;52.436;13.312;2024-01-30T00:17:38;4.20;99.90
33699;DHT22;20032;52.436;13.312;2024-01-30T00:20:04;4.30;99.90
33699;DHT22;20032;52.436;13.312;2024-01-30T00:22:31;4.30;99.90
33699;DHT22;20032;52.436;13.312;2024-01-30T00:24:57;4.20;99.90
33699;DHT22;20032;52.436;13.312;2024-01-30T00:27:22;4.10;99.90
33699;DHT22;20032;52.436;13.312;2024-01-30T00:29:48;4.00;99.90
33699;DHT22;20032;52.436;13.312;2024-01-30T00:32:13;4.10;99.90
33699;DHT22;20032;52.436;13.312;2024-01-30T00:34:39;4.20;99.90
33699;DHT22;20032;52.436;13.312;2024-01-30T00:37:04;4.10;99.90
33699;DHT22;20032;52.436;13.312;2024-01-30T00:39:30;4.10;99.90
33699;DHT22;20032;52.436;13.312;2024-01-30T00:41:55;4.10;99.90
33699;DHT22;20032;52.436;13.312;2024-01-30T00:44:20;4.20;99.90
33699;DHT22;20032;52.436;13.312;2024-01-30T00:46:46;4.10;99.90
33699;DHT22;20032;52.436;13.312;2024-01-30T00:49:11;4.10;99.90
33699;DHT22;20032;52.436;13.312;2024-01-30T00:51:37;4.10;99.90
33699;DHT22;20032;52.436;13.312;2024-01-30T00:54:02;4.00;99.90
33699;DHT22;20032;52.436;13.312;2024-01-30T00:56:28;4.00;99.90
33699;DHT22;20032;52.436;13.312;2024-01-30T00:58:54;4.00;99.90
33699;DHT22;20032;52.436;13.312;2024-01-30T01:01:19;3.80;99.90
33699;DHT22;20032;52.436;13.312;2024-01-30T01:03:45;3.80;99.90
33699;DHT22;20032;52.436;13.312;2024-01-30T01:06:10;3.80;99.90
33699;DHT22;20032;52.436;13.312;2024-01-30T01:08:36;3.80;99.90
33699;DHT22;20032;52.436;13.312;2024-01-30T01:11:01;3.70;99.90
33699;DHT22;20032;52.436;13.312;2024-01-30T01:13:28;3.80;99.90
33699;DHT22;20032;52.436;13.312;2024-01-30T01:15:54;3.80;99.90
33699;DHT22;20032;52.436;13.312;2024-01-30T01:18:20;3.70;99.90
33699;DHT22;20032;52.436;13.312;2024-01-30T01:20:45;3.60;99.90
33699;DHT22;20032;52.436;13.312;2024-01-30T01:23:11;3.60;99.90
33699;DHT22;20032;52.436;13.312;2024-01-30T01:25:36;3.60;99.90
33699;DHT22;20032;52.436;13.312;2024-01-30T01:28:02;3.60;99.90
33699;DHT22;20032;52.436;13.312;2024-01-30T01:30:28;3.70;99.90
33699;DHT22;20032;52.436;13.312;2024-01-30T01:32:54;3.80;99.90
33699;DHT22;20032;52.436;13.312;2024-01-30T01:35:22;3.80;99.90
33699;DHT22;20032;52.436;13.312;2024-01-30T01:37:49;3.70;99.90
33699;DHT22;20032;52.436;13.312;2024-01-30T01:40:22;3.60;99.90
33699;DHT22;20032;52.436;13.312;2024-01-30T01:42:49;3.70;99.90
33699;DHT22;20032;52.436;13.312;2024-01-30T01:45:15;3.70;99.90
33699;DHT22;20032;52.436;13.312;2024-01-30T01:47:41;3.80;99.90
33699;DHT22;20032;52.436;13.312;2024-01-30T01:50:07;3.70;99.90
33699;DHT22;20032;52.436;13.312;2024-01-30T01:52:33;3.70;99.90
33699;DHT22;20032;52.436;13.312;2024-01-30T01:54:59;3.70;99.90
33699;DHT22;20032;52.436;13.312;2024-01-30T01:57:25;3.70;99.90
33699;DHT22;20032;52.436;13.312;2024-01-30T01:59:50;3.60;99.90
33699;DHT22;20032;52.436;13.312;2024-01-30T02:02:17;3.50;99.90
33699;DHT22;20032;52.436;13.312;2024-01-30T02:04:45;3.50;99.90
33699;DHT22;20032;52.436;13.312;2024-01-30T02:07:11;3.40;99.90
33699;DHT22;20032;52.436;13.312;2024-01-30T02:09:36;3.40;99.90
33699;DHT22;20032;52.436;13.312;2024-01-30T02:12:02;3.50;99.90
33699;DHT22;20032;52.436;13.312;2024-01-30T02:14:27;3.50;99.90
33699;DHT22;20032;52.436;13.312;2024-01-30T02:16:53;3.70;99.90
33699;DHT22;20032;52.436;13.312;2024-01-30T02:19:18;3.70;99.90
33699;DHT22;20032;52.436;13.312;2024-01-30T02:21:45;3.70;99.90
33699;DHT22;20032;52.436;13.312;2024-01-30T02:24:11;3.60;99.90
33699;DHT22;20032;52.436;13.312;2024-01-30T02:26:36;3.60;99.90
33699;DHT22;20032;52.436;13.312;2024-01-30T02:29:02;3.70;99.90
33699;DHT22;20032;52.436;13.312;2024-01-30T02:31:27;3.70;99.90
33699;DHT22;20032;52.436;13.312;2024-01-30T02:33:53;3.70;99.90
33699;DHT22;20032;52.436;13.312;2024-01-30T02:36:18;3.70;99.90
33699;DHT22;20032;52.436;13.312;2024-01-30T02:38:44;3.60;99.90
33699;DHT22;20032;52.436;13.312;2024-01-30T02:41:11;3.60;99.90
33699;DHT22;20032;52.436;13.312;2024-01-30T02:43:37;3.70;99.90
33699;DHT22;20032;52.436;13.312;2024-01-30T02:46:02;3.60;99.90
33699;DHT22;20032;52.436;13.312;2024-01-30T02:48:28;3.60;99.90
33699;DHT22;20032;52.436;13.312;2024-01-30T02:50:53;3.70;99.90
33699;DHT22;20032;52.436;13.312;2024-01-30T02:53:19;3.80;99.90
33699;DHT22;20032;52.436;13.312;2024-01-30T02:55:44;3.70;99.90
33699;DHT22;20032;52.436;13.312;2024-01-30T02:58:10;3.70;99.90
33699;DHT22;20032;52.436;13.312;2024-01-30T03:00:35;3.70;99.90
33699;DHT22;20032;52.436;13.312;2024-01-30T03:03:01;3.60;99.90
33699;DHT22;20032;52.436;13.312;2024-01-30T03:05:27;3.60;99.90
33699;DHT22;20032;52.436;13.312;2024-01-30T03:07:52;3.60;99.90
33699;DHT22;20032;52.436;13.312;2024-01-30T03:10:18;3.70;99.90
33699;DHT22;20032;52.436;13.312;2024-01-30T03:12:44;3.70;99.90
33699;DHT22;20032;52.436;13.312;2024-01-30T03:15:09;3.60;99.90
33699;DHT22;20032;52.436;13.312;2024-01-30T03:17:35;3.40;99.90
33699;DHT22;20032;52.436;13.312;2024-01-30T03:20:02;3.40;99.90
33699;DHT22;20032;52.436;13.312;2024-01-30T03:22:29;3.40;99.90
33699;DHT22;20032;52.436;13.312;2024-01-30T03:24:54;3.60;99.90
33699;DHT22;20032;52.436;13.312;2024-01-30T03:27:19;3.50;99.90
33699;DHT22;20032;52.436;13.312;2024-01-30T03:29:45;3.30;99.90
33699;DHT22;20032;52.436;13.312;2024-01-30T03:32:10;3.40;99.90
33699;DHT22;20032;52.436;13.312;2024-01-30T03:34:36;3.30;99.90
33699;DHT22;20032;52.436;13.312;2024-01-30T03:37:01;3.40;99.90
33699;DHT22;20032;52.436;13.312;2024-01-30T03:39:27;3.40;99.90
33699;DHT22;20032;52.436;13.312;2024-01-30T03:41:52;3.30;99.90
33699;DHT22;20032;52.436;13.312;2024-01-30T03:44:18;3.20;99.90
33699;DHT22;20032;52.436;13.312;2024-01-30T03:46:43;3.20;99.90
33699;DHT22;20032;52.436;13.312;2024-01-30T03:49:09;3.10;99.90
33699;DHT22;20032;52.436;13.312;2024-01-30T03:51:35;3.10;99.90
33699;DHT22;20032;52.436;13.312;2024-01-30T03:54:00;3.00;99.90
33699;DHT22;20032;52.436;13.312;2024-01-30T03:56:26;3.00;99.90
33699;DHT22;20032;52.436;13.312;2024-01-30T03:58:51;2.90;99.90
33699;DHT22;20032;52.436;13.312;2024-01-30T04:01:17;2.90;99.90
33699;DHT22;20032;52.436;13.312;2024-01-30T04:03:42;3.00;99.90
33699;DHT22;20032;52.436;13.312;2024-01-30T04:06:09;3.00;99.90
33699;DHT22;20032;52.436;13.312;2024-01-30T04:08:34;3.00;99.90
33699;DHT22;20032;52.436;13.312;2024-01-30T04:11:05;3.20;99.90
33699;DHT22;20032;52.436;13.312;2024-01-30T04:13:32;3.30;99.90
33699;DHT22;20032;52.436;13.312;2024-01-30T04:15:59;3.30;99.90
33699;DHT22;20032;52.436;13.312;2024-01-30T04:18:25;3.40;99.90
33699;DHT22;20032;52.436;13.312;2024-01-30T04:20:50;3.50;99.90
33699;DHT22;20032;52.436;13.312;2024-01-30T04:23:16;3.60;99.90
33699;DHT22;20032;52.436;13.312;2024-01-30T04:25:41;3.60;99.90
33699;DHT22;20032;52.436;13.312;2024-01-30T04:28:07;3.60;99.90
33699;DHT22;20032;52.436;13.312;2024-01-30T04:30:32;3.30;99.90
33699;DHT22;20032;52.436;13.312;2024-01-30T04:32:58;3.10;99.90
33699;DHT22;20032;52.436;13.312;2024-01-30T04:35:23;3.00;99.90
33699;DHT22;20032;52.436;13.312;2024-01-30T04:37:51;3.10;99.90
33699;DHT22;20032;52.436;13.312;2024-01-30T04:40:17;3.10;99.90
33699;DHT22;20032;52.436;13.312;2024-01-30T04:42:42;3.20;99.90
33699;DHT22;20032;52.436;13.312;2024-01-30T04:45:08;3.10;99.90
33699;DHT22;20032;52.436;13.312;2024-01-30T04:47:34;3.00;99.90
33699;DHT22;20032;52.436;13.312;2024-01-30T04:49:59;2.90;99.90
33699;DHT22;20032;52.436;13.312;2024-01-30T04:52:25;3.00;99.90
33699;DHT22;20032;52.436;13.312;2024-01-30T04:54:50;3.00;99.90
33699;DHT22;20032;52.436;13.312;2024-01-30T04:57:15;3.10;99.90
33699;DHT22;20032;52.436;13.312;2024-01-30T04:59:41;3.20;99.90
33699;DHT22;20032;52.436;13.312;2024-01-30T05:02:06;3.20;99.90
33699;DHT22;20032;52.436;13.312;2024-01-30T05:04:32;3.20;99.90
33699;DHT22;20032;52.436;13.312;2024-01-30T05:06:58;3.20;99.90
33699;DHT22;20032;52.436;13.312;2024-01-30T05:09:23;3.20;99.90
33699;DHT22;20032;52.436;13.312;2024-01-30T05:11:48;3.20;99.90
33699;DHT22;20032;52.436;13.312;2024-01-30T05:14:14;3.40;99.90
33699;DHT22;20032;52.436;13.312;2024-01-30T05:16:40;3.40;99.90
33699;DHT22;20032;52.436;13.312;2024-01-30T05:19:06;3.30;99.90
33699;DHT22;20032;52.436;13.312;2024-01-30T05:21:31;3.10;99.90
33699;DHT22;20032;52.436;13.312;2024-01-30T05:23:58;3.00;99.90
33699;DHT22;20032;52.436;13.312;2024-01-30T05:26:24;2.90;99.90
33699;DHT22;20032;52.436;13.312;2024-01-30T05:28:49;2.90;99.90
33699;DHT22;20032;52.436;13.312;2024-01-30T05:31:15;2.90;99.90
33699;DHT22;20032;52.436;13.312;2024-01-30T05:33:40;2.90;99.90
33699;DHT22;20032;52.436;13.312;2024-01-30T05:36:06;3.10;99.90
33699;DHT22;20032;52.436;13.312;2024-01-30T05:38:32;3.10;99.90
33699;DHT22;20032;52.436;13.312;2024-01-30T05:40:57;3.20;99.90
33699;DHT22;20032;52.436;13.312;2024-01-30T05:43:24;3.30;99.90
33699;DHT22;20032;52.436;13.312;2024-01-30T05:45:49;3.40;99.90
33699;DHT22;20032;52.436;13.312;2024-01-30T05:48:15;3.40;99.90
33699;DHT22;20032;52.436;13.312;2024-01-30T05:50:41;3.30;99.90
33699;DHT22;20032;52.436;13.312;2024-01-30T05:53:06;3.30;99.90
33699;DHT22;20032;52.436;13.312;2024-01-30T05:55:32;3.30;99.90
33699;DHT22;20032;52.436;13.312;2024-01-30T05:57:57;3.30;99.90
33699;DHT22;20032;52.436;13.312;2024-01-30T06:00:23;3.30;99.90
33699;DHT22;20032;52.436;13.312;2024-01-30T06:02:48;3.20;99.90
33699;DHT22;20032;52.436;13.312;2024-01-30T06:05:14;3.10;99.90
33699;DHT22;20032;52.436;13.312;2024-01-30T06:07:39;3.10;99.90
33699;DHT22;20032;52.436;13.312;2024-01-30T06:10:05;3.10;99.90
33699;DHT22;20032;52.436;13.312;2024-01-30T06:12:32;3.10;99.90
33699;DHT22;20032;52.436;13.312;2024-01-30T06:14:57;3.10;99.90
33699;DHT22;20032;52.436;13.312;2024-01-30T06:17:23;3.20;99.90
33699;DHT22;20032;52.436;13.312;2024-01-30T06:19:49;3.30;99.90
33699;DHT22;20032;52.436;13.312;2024-01-30T06:22:16;3.20;99.90
33699;DHT22;20032;52.436;13.312;2024-01-30T06:24:41;3.20;99.90
33699;DHT22;20032;52.436;13.312;2024-01-30T06:27:07;3.10;99.90
33699;DHT22;20032;52.436;13.312;2024-01-30T06:29:32;3.20;99.90
33699;DHT22;20032;52.436;13.312;2024-01-30T06:31:59;3.10;99.90
33699;DHT22;20032;52.436;13.312;2024-01-30T06:34:24;3.10;99.90
33699;DHT22;20032;52.436;13.312;2024-01-30T06:36:51;3.00;99.90
33699;DHT22;20032;52.436;13.312;2024-01-30T06:39:17;3.00;99.90
33699;DHT22;20032;52.436;13.312;2024-01-30T06:41:43;3.00;99.90
33699;DHT22;20032;52.436;13.312;2024-01-30T06:44:08;3.00;99.90
33699;DHT22;20032;52.436;13.312;2024-01-30T06:46:34;3.00;99.90
33699;DHT22;20032;52.436;13.312;2024-01-30T06:49:00;3.00;99.90
33699;DHT22;20032;52.436;13.312;2024-01-30T06:51:26;3.10;99.90
33699;DHT22;20032;52.436;13.312;2024-01-30T06:53:52;3.10;99.90
33699;DHT22;20032;52.436;13.312;2024-01-30T06:56:17;3.20;99.90
33699;DHT22;20032;52.436;13.312;2024-01-30T06:58:47;3.30;99.90
33699;DHT22;20032;52.436;13.312;2024-01-30T07:01:14;3.40;99.90
33699;DHT22;20032;52.436;13.312;2024-01-30T07:03:39;3.30;99.90
33699;DHT22;20032;52.436;13.312;2024-01-30T07:06:05;3.30;99.90
33699;DHT22;20032;52.436;13.312;2024-01-30T07:08:30;3.30;99.90
33699;DHT22;20032;52.436;13.312;2024-01-30T07:10:56;3.30;99.90
33699;DHT22;20032;52.436;13.312;2024-01-30T07:13:21;3.30;99.90
33699;DHT22;20032;52.436;13.312;2024-01-30T07:15:47;3.30;99.90
33699;DHT22;20032;52.436;13.312;2024-01-30T07:18:12;3.20;99.90
33699;DHT22;20032;52.436;13.312;2024-01-30T07:20:39;3.20;99.90
33699;DHT22;20032;52.436;13.312;2024-01-30T07:23:12;3.20;99.90
33699;DHT22;20032;52.436;13.312;2024-01-30T07:25:40;3.20;99.90
33699;DHT22;20032;52.436;13.312;2024-01-30T07:28:07;3.30;99.90
33699;DHT22;20032;52.436;13.312;2024-01-30T07:30:32;3.30;99.90
33699;DHT22;20032;52.436;13.312;2024-01-30T07:32:58;3.30;99.90
33699;DHT22;20032;52.436;13.312;2024-01-30T07:35:23;3.40;99.90
33699;DHT22;20032;52.436;13.312;2024-01-30T07:37:49;3.40;99.90
33699;DHT22;20032;52.436;13.312;2024-01-30T07:40:14;3.40;99.90
33699;DHT22;20032;52.436;13.312;2024-01-30T07:42:40;3.40;99.90
33699;DHT22;20032;52.436;13.312;2024-01-30T07:45:05;3.30;99.90
33699;DHT22;20032;52.436;13.312;2024-01-30T07:47:31;3.40;99.90
33699;DHT22;20032;52.436;13.312;2024-01-30T07:49:56;3.40;99.90
33699;DHT22;20032;52.436;13.312;2024-01-30T07:52:22;3.40;99.90
33699;DHT22;20032;52.436;13.312;2024-01-30T07:54:47;3.40;99.90
33699;DHT22;20032;52.436;13.312;2024-01-30T07:57:13;3.40;99.90
33699;DHT22;20032;52.436;13.312;2024-01-30T07:59:38;3.50;99.90
33699;DHT22;20032;52.436;13.312;2024-01-30T08:02:04;3.60;99.90
33699;DHT22;20032;52.436;13.312;2024-01-30T08:04:29;3.60;99.90
33699;DHT22;20032;52.436;13.312;2024-01-30T08:06:55;3.70;99.90
33699;DHT22;20032;52.436;13.312;2024-01-30T08:09:20;3.70;99.90
33699;DHT22;20032;52.436;13.312;2024-01-30T08:11:46;3.80;99.90
33699;DHT22;20032;52.436;13.312;2024-01-30T08:14:11;3.90;99.90
33699;DHT22;20032;52.436;13.312;2024-01-30T08:16:39;4.00;99.90
33699;DHT22;20032;52.436;13.312;2024-01-30T08:19:04;4.10;99.90
33699;DHT22;20032;52.436;13.312;2024-01-30T08:21:30;4.10;99.90
33699;DHT22;20032;52.436;13.312;2024-01-30T08:23:55;4.10;99.90
33699;DHT22;20032;52.436;13.312;2024-01-30T08:26:21;4.10;99.90
33699;DHT22;20032;52.436;13.312;2024-01-30T08:28:46;4.20;99.90
33699;DHT22;20032;52.436;13.312;2024-01-30T08:31:12;4.30;99.90
33699;DHT22;20032;52.436;13.312;2024-01-30T08:33:37;4.40;99.90
33699;DHT22;20032;52.436;13.312;2024-01-30T08:36:03;4.60;99.90
33699;DHT22;20032;52.436;13.312;2024-01-30T08:38:28;4.70;99.90
33699;DHT22;20032;52.436;13.312;2024-01-30T08:40:55;4.80;99.90
33699;DHT22;20032;52.436;13.312;2024-01-30T08:43:20;4.80;99.90
33699;DHT22;20032;52.436;13.312;2024-01-30T08:45:46;4.80;99.90
33699;DHT22;20032;52.436;13.312;2024-01-30T08:48:11;4.90;99.90
33699;DHT22;20032;52.436;13.312;2024-01-30T08:50:37;4.90;99.90
33699;DHT22;20032;52.436;13.312;2024-01-30T08:53:04;4.90;99.90
33699;DHT22;20032;52.436;13.312;2024-01-30T08:55:29;5.00;99.90
33699;DHT22;20032;52.436;13.312;2024-01-30T08:57:55;5.00;99.90
33699;DHT22;20032;52.436;13.312;2024-01-30T09:00:20;5.00;99.90
33699;DHT22;20032;52.436;13.312;2024-01-30T09:02:46;5.20;99.90
33699;DHT22;20032;52.436;13.312;2024-01-30T09:05:11;5.20;99.90
33699;DHT22;20032;52.436;13.312;2024-01-30T09:07:37;5.30;99.90
33699;DHT22;20032;52.436;13.312;2024-01-30T09:10:03;5.30;99.90
33699;DHT22;20032;52.436;13.312;2024-01-30T09:12:28;5.40;99.90
33699;DHT22;20032;52.436;13.312;2024-01-30T09:14:54;5.50;99.90
33699;DHT22;20032;52.436;13.312;2024-01-30T09:17:20;5.50;99.90
33699;DHT22;20032;52.436;13.312;2024-01-30T09:19:46;5.50;99.90
33699;DHT22;20032;52.436;13.312;2024-01-30T09:22:11;5.50;99.90
33699;DHT22;20032;52.436;13.312;2024-01-30T09:24:37;5.50;99.90
33699;DHT22;20032;52.436;13.312;2024-01-30T09:27:03;5.50;99.90
33699;DHT22;20032;52.436;13.312;2024-01-30T09:29:28;5.50;99.90
33699;DHT22;20032;52.436;13.312;2024-01-30T09:31:54;5.60;99.90
33699;DHT22;20032;52.436;13.312;2024-01-30T09:34:19;5.70;99.90
33699;DHT22;20032;52.436;13.312;2024-01-30T09:36:45;5.70;99.90
33699;DHT22;20032;52.436;13.312;2024-01-30T09:39:10;5.80;99.90
33699;DHT22;20032;52.436;13.312;2024-01-30T09:41:48;5.90;99.90
33699;DHT22;20032;52.436;13.312;2024-01-30T09:44:16;5.90;99.90
33699;DHT22;20032;52.436;13.312;2024-01-30T09:46:42;6.00;99.90
33699;DHT22;20032;52.436;13.312;2024-01-30T09:49:09;6.10;99.90
33699;DHT22;20032;52.436;13.312;2024-01-30T09:51:35;6.10;99.90
33699;DHT22;20032;52.436;13.312;2024-01-30T09:54:02;6.30;99.90
33699;DHT22;20032;52.436;13.312;2024-01-30T09:56:28;6.40;99.90
33699;DHT22;20032;52.436;13.312;2024-01-30T09:58:54;6.50;99.90
33699;DHT22;20032;52.436;13.312;2024-01-30T10:01:19;6.50;99.90
33699;DHT22;20032;52.436;13.312;2024-01-30T10:03:45;6.60;99.90
33699;DHT22;20032;52.436;13.312;2024-01-30T10:06:11;6.80;99.90
33699;DHT22;20032;52.436;13.312;2024-01-30T10:08:37;6.80;99.90
33699;DHT22;20032;52.436;13.312;2024-01-30T10:11:03;6.80;99.90
33699;DHT22;20032;52.436;13.312;2024-01-30T10:13:29;6.90;99.90
33699;DHT22;20032;52.436;13.312;2024-01-30T10:15:54;6.90;99.90
33699;DHT22;20032;52.436;13.312;2024-01-30T10:18:22;6.90;99.90
33699;DHT22;20032;52.436;13.312;2024-01-30T10:20:48;6.90;99.90
33699;DHT22;20032;52.436;13.312;2024-01-30T10:23:13;7.00;99.90
33699;DHT22;20032;52.436;13.312;2024-01-30T10:25:39;7.10;99.90
33699;DHT22;20032;52.436;13.312;2024-01-30T10:28:04;7.20;99.90
33699;DHT22;20032;52.436;13.312;2024-01-30T10:30:30;7.10;99.90
33699;DHT22;20032;52.436;13.312;2024-01-30T10:32:55;7.20;99.90
33699;DHT22;20032;52.436;13.312;2024-01-30T10:35:21;7.20;99.90
33699;DHT22;20032;52.436;13.312;2024-01-30T10:37:48;7.20;99.90
33699;DHT22;20032;52.436;13.312;2024-01-30T10:40:14;7.30;99.90
33699;DHT22;20032;52.436;13.312;2024-01-30T10:42:45;7.30;99.90
33699;DHT22;20032;52.436;13.312;2024-01-30T10:45:13;7.20;99.90
33699;DHT22;20032;52.436;13.312;2024-01-30T10:47:43;7.30;99.90
33699;DHT22;20032;52.436;13.312;2024-01-30T10:50:09;7.30;99.90
33699;DHT22;20032;52.436;13.312;2024-01-30T10:52:36;7.40;99.90
33699;DHT22;20032;52.436;13.312;2024-01-30T10:55:04;7.40;99.90
33699;DHT22;20032;52.436;13.312;2024-01-30T10:57:34;7.40;99.90
33699;DHT22;20032;52.436;13.312;2024-01-30T11:00:02;7.50;99.90
33699;DHT22;20032;52.436;13.312;2024-01-30T11:02:31;7.50;99.90
33699;DHT22;20032;52.436;13.312;2024-01-30T11:04:58;7.60;99.90
33699;DHT22;20032;52.436;13.312;2024-01-30T11:07:25;7.60;99.90
33699;DHT22;20032;52.436;13.312;2024-01-30T11:09:59;7.60;99.90
33699;DHT22;20032;52.436;13.312;2024-01-30T11:12:26;7.60;99.90
33699;DHT22;20032;52.436;13.312;2024-01-30T11:15:10;7.60;99.90
33699;DHT22;20032;52.436;13.312;2024-01-30T11:17:52;7.60;99.90
33699;DHT22;20032;52.436;13.312;2024-01-30T11:20:33;7.70;99.90
33699;DHT22;20032;52.436;13.312;2024-01-30T11:23:01;7.70;99.90
33699;DHT22;20032;52.436;13.312;2024-01-30T11:25:31;7.80;99.90
33699;DHT22;20032;52.436;13.312;2024-01-30T11:27:57;7.80;99.90
33699;DHT22;20032;52.436;13.312;2024-01-30T11:30:28;7.80;99.90
33699;DHT22;20032;52.436;13.312;2024-01-30T11:33:01;7.80;99.90
33699;DHT22;20032;52.436;13.312;2024-01-30T11:35:32;7.90;99.90
33699;DHT22;20032;52.436;13.312;2024-01-30T11:37:58;7.90;99.90
33699;DHT22;20032;52.436;13.312;2024-01-30T11:40:29;7.90;99.90
33699;DHT22;20032;52.436;13.312;2024-01-30T11:42:56;7.90;99.90
33699;DHT22;20032;52.436;13.312;2024-01-30T11:45:21;7.90;99.90
33699;DHT22;20032;52.436;13.312;2024-01-30T11:47:47;8.00;99.90
33699;DHT22;20032;52.436;13.312;2024-01-30T11:50:13;8.10;99.90
33699;DHT22;20032;52.436;13.312;2024-01-30T11:52:39;8.10;99.90
33699;DHT22;20032;52.436;13.312;2024-01-30T11:55:05;8.20;99.90
33699;DHT22;20032;52.436;13.312;2024-01-30T11:57:31;8.20;99.90
33699;DHT22;20032;52.436;13.312;2024-01-30T11:59:56;8.20;99.90
33699;DHT22;20032;52.436;13.312;2024-01-30T12:02:22;8.30;99.90
33699;DHT22;20032;52.436;13.312;2024-01-30T12:04:48;8.30;99.90
33699;DHT22;20032;52.436;13.312;2024-01-30T12:07:13;8.40;99.90
33699;DHT22;20032;52.436;13.312;2024-01-30T12:09:41;8.50;99.90
33699;DHT22;20032;52.436;13.312;2024-01-30T12:12:07;8.60;99.90
33699;DHT22;20032;52.436;13.312;2024-01-30T12:14:38;8.50;99.90
33699;DHT22;20032;52.436;13.312;2024-01-30T12:17:03;8.50;99.90
33699;DHT22;20032;52.436;13.312;2024-01-30T12:19:29;8.50;99.90
33699;DHT22;20032;52.436;13.312;2024-01-30T12:21:56;8.60;99.90
33699;DHT22;20032;52.436;13.312;2024-01-30T12:24:22;8.70;99.90
33699;DHT22;20032;52.436;13.312;2024-01-30T12:26:48;8.70;99.90
33699;DHT22;20032;52.436;13.312;2024-01-30T12:29:14;8.70;99.90
33699;DHT22;20032;52.436;13.312;2024-01-30T12:31:42;8.70;99.90
33699;DHT22;20032;52.436;13.312;2024-01-30T12:34:07;8.70;99.90
33699;DHT22;20032;52.436;13.312;2024-01-30T12:36:34;8.80;99.90
33699;DHT22;20032;52.436;13.312;2024-01-30T12:39:00;8.70;99.90
33699;DHT22;20032;52.436;13.312;2024-01-30T12:41:26;8.80;99.90
33699;DHT22;20032;52.436;13.312;2024-01-30T12:43:54;8.80;99.90
33699;DHT22;20032;52.436;13.312;2024-01-30T12:46:19;8.80;99.90
33699;DHT22;20032;52.436;13.312;2024-01-30T12:48:45;9.00;99.90
33699;DHT22;20032;52.436;13.312;2024-01-30T12:51:11;9.10;99.90
33699;DHT22;20032;52.436;13.312;2024-01-30T12:53:36;9.20;99.90
33699;DHT22;20032;52.436;13.312;2024-01-30T12:56:02;9.40;99.90
33699;DHT22;20032;52.436;13.312;2024-01-30T12:58:27;9.40;99.90
33699;DHT22;20032;52.436;13.312;2024-01-30T13:00:53;9.50;99.90
33699;DHT22;20032;52.436;13.312;2024-01-30T13:03:19;9.50;99.90
33699;DHT22;20032;52.436;13.312;2024-01-30T13:05:44;9.40;99.90
33699;DHT22;20032;52.436;13.312;2024-01-30T13:08:10;9.40;99.90
33699;DHT22;20032;52.436;13.312;2024-01-30T13:10:35;9.20;99.90
33699;DHT22;20032;52.436;13.312;2024-01-30T13:13:01;9.30;99.90
33699;DHT22;20032;52.436;13.312;2024-01-30T13:15:27;9.30;99.90
33699;DHT22;20032;52.436;13.312;2024-01-30T13:17:52;9.20;99.90
33699;DHT22;20032;52.436;13.312;2024-01-30T13:20:19;9.20;99.90
33699;DHT22;20032;52.436;13.312;2024-01-30T13:22:47;9.20;99.90
33699;DHT22;20032;52.436;13.312;2024-01-30T13:25:14;9.20;99.90
33699;DHT22;20032;52.436;13.312;2024-01-30T13:27:40;9.10;99.90
33699;DHT22;20032;52.436;13.312;2024-01-30T13:30:07;9.10;99.90
33699;DHT22;20032;52.436;13.312;2024-01-30T13:32:34;9.10;99.90
33699;DHT22;20032;52.436;13.312;2024-01-30T13:35:00;9.20;99.90
33699;DHT22;20032;52.436;13.312;2024-01-30T13:37:25;9.20;99.90
33699;DHT22;20032;52.436;13.312;2024-01-30T13:39:51;9.20;99.90
33699;DHT22;20032;52.436;13.312;2024-01-30T13:42:16;9.20;99.90
33699;DHT22;20032;52.436;13.312;2024-01-30T13:44:42;9.20;99.90
33699;DHT22;20032;52.436;13.312;2024-01-30T13:47:09;9.10;99.90
33699;DHT22;20032;52.436;13.312;2024-01-30T13:49:34;9.10;99.90
33699;DHT22;20032;52.436;13.312;2024-01-30T13:52:00;9.20;99.90
33699;DHT22;20032;52.436;13.312;2024-01-30T13:54:25;9.20;99.90
33699;DHT22;20032;52.436;13.312;2024-01-30T13:56:51;9.30;99.90
33699;DHT22;20032;52.436;13.312;2024-01-30T13:59:17;9.30;99.90
33699;DHT22;20032;52.436;13.312;2024-01-30T14:01:48;9.30;99.90
33699;DHT22;20032;52.436;13.312;2024-01-30T14:04:14;9.20;99.90
33699;DHT22;20032;52.436;13.312;2024-01-30T14:06:40;9.20;99.90
33699;DHT22;20032;52.436;13.312;2024-01-30T14:09:06;9.20;99.90
33699;DHT22;20032;52.436;13.312;2024-01-30T14:11:31;9.20;99.90
33699;DHT22;20032;52.436;13.312;2024-01-30T14:13:57;9.20;99.90
33699;DHT22;20032;52.436;13.312;2024-01-30T14:16:22;9.20;99.90
33699;DHT22;20032;52.436;13.312;2024-01-30T14:18:49;9.20;99.90
33699;DHT22;20032;52.436;13.312;2024-01-30T14:21:15;9.20;99.90
33699;DHT22;20032;52.436;13.312;2024-01-30T14:23:41;9.20;99.90
33699;DHT22;20032;52.436;13.312;2024-01-30T14:26:06;9.20;99.90
33699;DHT22;20032;52.436;13.312;2024-01-30T14:28:32;9.20;99.90
33699;DHT22;20032;52.436;13.312;2024-01-30T14:30:57;9.10;99.90
33699;DHT22;20032;52.436;13.312;2024-01-30T14:33:23;9.20;99.90
33699;DHT22;20032;52.436;13.312;2024-01-30T14:35:48;9.20;99.90
33699;DHT22;20032;52.436;13.312;2024-01-30T14:38:14;9.20;99.90
33699;DHT22;20032;52.436;13.312;2024-01-30T14:40:39;9.10;99.90
33699;DHT22;20032;52.436;13.312;2024-01-30T14:43:05;9.10;99.90
33699;DHT22;20032;52.436;13.312;2024-01-30T14:45:30;9.00;99.90
33699;DHT22;20032;52.436;13.312;2024-01-30T14:51:19;9.10;99.90
33699;DHT22;20032;52.436;13.312;2024-01-30T14:53:44;9.10;99.90
33699;DHT22;20032;52.436;13.312;2024-01-30T14:56:10;9.00;99.90
33699;DHT22;20032;52.436;13.312;2024-01-30T14:58:37;9.00;99.90
33699;DHT22;20032;52.436;13.312;2024-01-30T15:01:03;9.00;99.90
33699;DHT22;20032;52.436;13.312;2024-01-30T15:03:29;8.90;99.90
33699;DHT22;20032;52.436;13.312;2024-01-30T15:05:54;8.90;99.90
33699;DHT22;20032;52.436;13.312;2024-01-30T15:08:21;8.90;99.90
33699;DHT22;20032;52.436;13.312;2024-01-30T15:10:46;8.90;99.90
33699;DHT22;20032;52.436;13.312;2024-01-30T15:13:12;9.00;99.90
33699;DHT22;20032;52.436;13.312;2024-01-30T15:15:37;8.90;99.90
33699;DHT22;20032;52.436;13.312;2024-01-30T15:18:03;8.90;99.90
33699;DHT22;20032;52.436;13.312;2024-01-30T15:20:29;8.80;99.90
33699;DHT22;20032;52.436;13.312;2024-01-30T15:22:59;8.80;99.90
33699;DHT22;20032;52.436;13.312;2024-01-30T15:25:25;8.70;99.90